sensor_id;sensor_type;location;lat;lon;timestamp;P1;durP1;ratioP1;P2;durP2;ratioP2
4980;SDS011;2507;50.392;7.482;2023-09-07T00:01:07;9.57;;;8.20;;
4980;SDS011;2507;50.392;7.482;2023-09-07T00:03:32;8.33;;;7.53;;
4980;SDS011;2507;50.392;7.482;2023-09-07T00:05:58;9.33;;;8.37;;
4980;SDS011;2507;50.392;7.482;2023-09-07T00:08:23;14.20;;;9.50;;
4980;SDS011;2507;50.392;7.482;2023-09-07T00:10:50;12.77;;;8.60;;
4980;SDS011;2507;50.392;7.482;2023-09-07T00:13:15;9.37;;;8.40;;
4980;SDS011;2507;50.392;7.482;2023-09-07T00:15:41;9.47;;;8.40;;
4980;SDS011;2507;50.392;7.482;2023-09-07T00:18:07;10.00;;;9.10;;
4980;SDS011;2507;50.392;7.482;2023-09-07T00:20:33;10.07;;;8.37;;
4980;SDS011;2507;50.392;7.482;2023-09-07T00:22:58;11.50;;;8.90;;
4980;SDS011;2507;50.392;7.482;2023-09-07T00:25:25;9.20;;;8.07;;
4980;SDS011;2507;50.392;7.482;2023-09-07T00:27:50;10.00;;;9.10;;
4980;SDS011;2507;50.392;7.482;2023-09-07T00:30:16;10.27;;;9.27;;
4980;SDS011;2507;50.392;7.482;2023-09-07T00:32:41;9.10;;;8.10;;
4980;SDS011;2507;50.392;7.482;2023-09-07T00:35:06;11.33;;;10.20;;
4980;SDS011;2507;50.392;7.482;2023-09-07T00:37:32;11.83;;;10.00;;
4980;SDS011;2507;50.392;7.482;2023-09-07T00:39:58;12.60;;;11.30;;
4980;SDS011;2507;50.392;7.482;2023-09-07T00:42:23;11.77;;;10.53;;
4980;SDS011;2507;50.392;7.482;2023-09-07T00:44:49;13.00;;;9.23;;
4980;SDS011;2507;50.392;7.482;2023-09-07T00:47:14;8.90;;;8.00;;
4980;SDS011;2507;50.392;7.482;2023-09-07T00:49:40;9.40;;;8.60;;
4980;SDS011;2507;50.392;7.482;2023-09-07T00:52:06;9.80;;;9.00;;
4980;SDS011;2507;50.392;7.482;2023-09-07T00:54:33;9.67;;;8.77;;
4980;SDS011;2507;50.392;7.482;2023-09-07T00:56:59;9.40;;;8.40;;
4980;SDS011;2507;50.392;7.482;2023-09-07T00:59:24;9.87;;;8.83;;
4980;SDS011;2507;50.392;7.482;2023-09-07T01:01:50;8.90;;;8.10;;
4980;SDS011;2507;50.392;7.482;2023-09-07T01:04:15;8.73;;;8.03;;
4980;SDS011;2507;50.392;7.482;2023-09-07T01:06:50;15.33;;;10.73;;
4980;SDS011;2507;50.392;7.482;2023-09-07T01:09:21;16.70;;;10.00;;
4980;SDS011;2507;50.392;7.482;2023-09-07T01:11:50;12.57;;;10.20;;
4980;SDS011;2507;50.392;7.482;2023-09-07T01:14:15;14.17;;;10.57;;
4980;SDS011;2507;50.392;7.482;2023-09-07T01:16:41;11.90;;;10.70;;
4980;SDS011;2507;50.392;7.482;2023-09-07T01:19:06;12.50;;;10.37;;
4980;SDS011;2507;50.392;7.482;2023-09-07T01:21:35;19.67;;;11.33;;
4980;SDS011;2507;50.392;7.482;2023-09-07T01:24:03;15.20;;;10.10;;
4980;SDS011;2507;50.392;7.482;2023-09-07T01:26:31;18.13;;;10.60;;
4980;SDS011;2507;50.392;7.482;2023-09-07T01:28:56;15.53;;;10.30;;
4980;SDS011;2507;50.392;7.482;2023-09-07T01:31:21;12.43;;;10.57;;
4980;SDS011;2507;50.392;7.482;2023-09-07T01:33:47;9.80;;;8.80;;
4980;SDS011;2507;50.392;7.482;2023-09-07T01:36:12;10.07;;;9.13;;
4980;SDS011;2507;50.392;7.482;2023-09-07T01:38:37;9.70;;;8.70;;
4980;SDS011;2507;50.392;7.482;2023-09-07T01:41:03;9.20;;;8.40;;
4980;SDS011;2507;50.392;7.482;2023-09-07T01:43:28;8.37;;;7.60;;
4980;SDS011;2507;50.392;7.482;2023-09-07T01:45:53;11.17;;;8.70;;
4980;SDS011;2507;50.392;7.482;2023-09-07T01:48:18;10.77;;;9.77;;
4980;SDS011;2507;50.392;7.482;2023-09-07T01:50:44;9.90;;;8.47;;
4980;SDS011;2507;50.392;7.482;2023-09-07T01:53:09;10.30;;;8.60;;
4980;SDS011;2507;50.392;7.482;2023-09-07T01:55:34;9.80;;;8.97;;
4980;SDS011;2507;50.392;7.482;2023-09-07T01:58:00;10.50;;;9.50;;
4980;SDS011;2507;50.392;7.482;2023-09-07T02:00:25;10.20;;;8.87;;
4980;SDS011;2507;50.392;7.482;2023-09-07T02:02:50;11.07;;;9.17;;
4980;SDS011;2507;50.392;7.482;2023-09-07T02:05:16;9.13;;;8.23;;
4980;SDS011;2507;50.392;7.482;2023-09-07T02:07:41;10.30;;;9.50;;
4980;SDS011;2507;50.392;7.482;2023-09-07T02:10:07;11.30;;;9.50;;
4980;SDS011;2507;50.392;7.482;2023-09-07T02:12:33;10.87;;;8.17;;
4980;SDS011;2507;50.392;7.482;2023-09-07T02:15:00;9.83;;;8.87;;
4980;SDS011;2507;50.392;7.482;2023-09-07T02:17:26;8.00;;;7.30;;
4980;SDS011;2507;50.392;7.482;2023-09-07T02:19:51;13.03;;;9.13;;
4980;SDS011;2507;50.392;7.482;2023-09-07T02:22:16;8.20;;;7.60;;
4980;SDS011;2507;50.392;7.482;2023-09-07T02:24:41;9.47;;;8.53;;
4980;SDS011;2507;50.392;7.482;2023-09-07T02:27:07;7.80;;;7.20;;
4980;SDS011;2507;50.392;7.482;2023-09-07T02:29:32;9.67;;;8.87;;
4980;SDS011;2507;50.392;7.482;2023-09-07T02:31:58;10.80;;;9.70;;
4980;SDS011;2507;50.392;7.482;2023-09-07T02:34:23;9.50;;;8.60;;
4980;SDS011;2507;50.392;7.482;2023-09-07T02:36:48;9.40;;;8.60;;
4980;SDS011;2507;50.392;7.482;2023-09-07T02:39:13;9.57;;;8.63;;
4980;SDS011;2507;50.392;7.482;2023-09-07T02:41:39;9.30;;;8.40;;
4980;SDS011;2507;50.392;7.482;2023-09-07T02:44:04;9.60;;;8.80;;
4980;SDS011;2507;50.392;7.482;2023-09-07T02:46:30;8.77;;;8.03;;
4980;SDS011;2507;50.392;7.482;2023-09-07T02:48:56;10.00;;;9.10;;
4980;SDS011;2507;50.392;7.482;2023-09-07T02:51:23;11.03;;;9.50;;
4980;SDS011;2507;50.392;7.482;2023-09-07T02:53:49;9.67;;;8.87;;
4980;SDS011;2507;50.392;7.482;2023-09-07T02:56:15;9.67;;;8.67;;
4980;SDS011;2507;50.392;7.482;2023-09-07T02:58:40;10.53;;;9.53;;
4980;SDS011;2507;50.392;7.482;2023-09-07T03:01:06;11.63;;;10.43;;
4980;SDS011;2507;50.392;7.482;2023-09-07T03:03:33;11.03;;;10.00;;
4980;SDS011;2507;50.392;7.482;2023-09-07T03:06:07;10.80;;;9.40;;
4980;SDS011;2507;50.392;7.482;2023-09-07T03:08:35;9.60;;;8.70;;
4980;SDS011;2507;50.392;7.482;2023-09-07T03:11:04;8.87;;;8.07;;
4980;SDS011;2507;50.392;7.482;2023-09-07T03:13:30;9.63;;;8.63;;
4980;SDS011;2507;50.392;7.482;2023-09-07T03:15:55;11.90;;;10.70;;
4980;SDS011;2507;50.392;7.482;2023-09-07T03:18:21;12.17;;;10.53;;
4980;SDS011;2507;50.392;7.482;2023-09-07T03:20:46;10.33;;;9.33;;
4980;SDS011;2507;50.392;7.482;2023-09-07T03:23:12;9.30;;;8.53;;
4980;SDS011;2507;50.392;7.482;2023-09-07T03:25:37;11.67;;;10.63;;
4980;SDS011;2507;50.392;7.482;2023-09-07T03:28:03;11.10;;;10.10;;
4980;SDS011;2507;50.392;7.482;2023-09-07T03:30:28;11.80;;;10.70;;
4980;SDS011;2507;50.392;7.482;2023-09-07T03:32:54;10.03;;;9.13;;
4980;SDS011;2507;50.392;7.482;2023-09-07T03:35:19;9.57;;;8.77;;
4980;SDS011;2507;50.392;7.482;2023-09-07T03:37:45;10.50;;;9.50;;
4980;SDS011;2507;50.392;7.482;2023-09-07T03:40:10;10.10;;;8.93;;
4980;SDS011;2507;50.392;7.482;2023-09-07T03:42:35;10.47;;;9.50;;
4980;SDS011;2507;50.392;7.482;2023-09-07T03:45:01;9.53;;;8.60;;
4980;SDS011;2507;50.392;7.482;2023-09-07T03:47:28;10.63;;;9.70;;
4980;SDS011;2507;50.392;7.482;2023-09-07T03:49:54;10.50;;;9.50;;
4980;SDS011;2507;50.392;7.482;2023-09-07T03:52:21;9.40;;;8.50;;
4980;SDS011;2507;50.392;7.482;2023-09-07T03:54:49;9.70;;;8.70;;
4980;SDS011;2507;50.392;7.482;2023-09-07T03:57:14;9.63;;;8.63;;
4980;SDS011;2507;50.392;7.482;2023-09-07T03:59:39;8.93;;;8.13;;
4980;SDS011;2507;50.392;7.482;2023-09-07T04:02:05;9.73;;;8.73;;
4980;SDS011;2507;50.392;7.482;2023-09-07T04:04:30;8.23;;;7.63;;
4980;SDS011;2507;50.392;7.482;2023-09-07T04:06:55;8.70;;;7.83;;
4980;SDS011;2507;50.392;7.482;2023-09-07T04:09:20;11.07;;;8.77;;
4980;SDS011;2507;50.392;7.482;2023-09-07T04:11:46;13.47;;;8.93;;
4980;SDS011;2507;50.392;7.482;2023-09-07T04:14:11;9.83;;;8.93;;
4980;SDS011;2507;50.392;7.482;2023-09-07T04:16:36;9.00;;;8.13;;
4980;SDS011;2507;50.392;7.482;2023-09-07T04:19:02;8.43;;;7.77;;
4980;SDS011;2507;50.392;7.482;2023-09-07T04:21:28;9.63;;;8.23;;
4980;SDS011;2507;50.392;7.482;2023-09-07T04:23:53;11.57;;;8.60;;
4980;SDS011;2507;50.392;7.482;2023-09-07T04:26:18;9.20;;;7.93;;
4980;SDS011;2507;50.392;7.482;2023-09-07T04:28:44;9.17;;;7.70;;
4980;SDS011;2507;50.392;7.482;2023-09-07T04:31:09;10.03;;;9.13;;
4980;SDS011;2507;50.392;7.482;2023-09-07T04:33:35;9.13;;;8.27;;
4980;SDS011;2507;50.392;7.482;2023-09-07T04:36:13;8.93;;;8.10;;
4980;SDS011;2507;50.392;7.482;2023-09-07T04:38:40;9.50;;;7.97;;
4980;SDS011;2507;50.392;7.482;2023-09-07T04:41:06;8.93;;;8.20;;
4980;SDS011;2507;50.392;7.482;2023-09-07T04:43:35;9.60;;;8.70;;
4980;SDS011;2507;50.392;7.482;2023-09-07T04:46:01;8.97;;;8.17;;
4980;SDS011;2507;50.392;7.482;2023-09-07T04:48:26;9.30;;;8.50;;
4980;SDS011;2507;50.392;7.482;2023-09-07T04:50:58;9.30;;;8.40;;
4980;SDS011;2507;50.392;7.482;2023-09-07T04:53:24;9.13;;;8.33;;
4980;SDS011;2507;50.392;7.482;2023-09-07T04:55:50;9.57;;;8.77;;
4980;SDS011;2507;50.392;7.482;2023-09-07T04:58:15;13.03;;;9.83;;
4980;SDS011;2507;50.392;7.482;2023-09-07T05:00:40;12.27;;;10.07;;
4980;SDS011;2507;50.392;7.482;2023-09-07T05:03:05;10.87;;;9.77;;
4980;SDS011;2507;50.392;7.482;2023-09-07T05:05:31;7.30;;;6.67;;
4980;SDS011;2507;50.392;7.482;2023-09-07T05:07:56;5.00;;;4.60;;
4980;SDS011;2507;50.392;7.482;2023-09-07T05:10:21;10.30;;;6.27;;
4980;SDS011;2507;50.392;7.482;2023-09-07T05:12:46;4.23;;;4.07;;
4980;SDS011;2507;50.392;7.482;2023-09-07T05:15:12;5.50;;;5.20;;
4980;SDS011;2507;50.392;7.482;2023-09-07T05:17:37;7.53;;;6.93;;
4980;SDS011;2507;50.392;7.482;2023-09-07T05:20:03;6.70;;;6.20;;
4980;SDS011;2507;50.392;7.482;2023-09-07T05:22:29;6.67;;;6.17;;
4980;SDS011;2507;50.392;7.482;2023-09-07T05:24:54;5.30;;;5.00;;
4980;SDS011;2507;50.392;7.482;2023-09-07T05:27:20;6.40;;;6.00;;
4980;SDS011;2507;50.392;7.482;2023-09-07T05:29:45;5.77;;;5.40;;
4980;SDS011;2507;50.392;7.482;2023-09-07T05:32:10;5.43;;;5.03;;
4980;SDS011;2507;50.392;7.482;2023-09-07T05:34:35;6.00;;;5.50;;
4980;SDS011;2507;50.392;7.482;2023-09-07T05:37:01;5.60;;;5.20;;
4980;SDS011;2507;50.392;7.482;2023-09-07T05:39:26;5.90;;;5.47;;
4980;SDS011;2507;50.392;7.482;2023-09-07T05:41:51;5.93;;;5.47;;
4980;SDS011;2507;50.392;7.482;2023-09-07T05:44:17;4.90;;;4.60;;
4980;SDS011;2507;50.392;7.482;2023-09-07T05:46:42;5.47;;;5.03;;
4980;SDS011;2507;50.392;7.482;2023-09-07T05:49:07;5.17;;;4.87;;
4980;SDS011;2507;50.392;7.482;2023-09-07T05:51:33;5.10;;;4.67;;
4980;SDS011;2507;50.392;7.482;2023-09-07T05:53:58;7.33;;;4.33;;
4980;SDS011;2507;50.392;7.482;2023-09-07T05:56:23;6.90;;;5.53;;
4980;SDS011;2507;50.392;7.482;2023-09-07T05:58:49;5.40;;;5.00;;
4980;SDS011;2507;50.392;7.482;2023-09-07T06:01:14;6.80;;;6.20;;
4980;SDS011;2507;50.392;7.482;2023-09-07T06:03:39;10.70;;;6.20;;
4980;SDS011;2507;50.392;7.482;2023-09-07T06:06:04;8.07;;;6.30;;
4980;SDS011;2507;50.392;7.482;2023-09-07T06:08:30;11.40;;;6.30;;
4980;SDS011;2507;50.392;7.482;2023-09-07T06:10:55;10.70;;;7.00;;
4980;SDS011;2507;50.392;7.482;2023-09-07T06:13:20;6.97;;;6.27;;
4980;SDS011;2507;50.392;7.482;2023-09-07T06:15:46;6.30;;;5.70;;
4980;SDS011;2507;50.392;7.482;2023-09-07T06:18:11;8.90;;;7.00;;
4980;SDS011;2507;50.392;7.482;2023-09-07T06:20:36;7.47;;;6.80;;
4980;SDS011;2507;50.392;7.482;2023-09-07T06:23:02;7.60;;;6.90;;
4980;SDS011;2507;50.392;7.482;2023-09-07T06:25:27;9.37;;;8.17;;
4980;SDS011;2507;50.392;7.482;2023-09-07T06:27:52;9.63;;;8.73;;
4980;SDS011;2507;50.392;7.482;2023-09-07T06:30:18;7.73;;;7.03;;
4980;SDS011;2507;50.392;7.482;2023-09-07T06:32:44;8.10;;;7.40;;
4980;SDS011;2507;50.392;7.482;2023-09-07T06:35:10;9.77;;;7.77;;
4980;SDS011;2507;50.392;7.482;2023-09-07T06:37:35;11.27;;;8.63;;
4980;SDS011;2507;50.392;7.482;2023-09-07T06:40:01;8.57;;;7.73;;
4980;SDS011;2507;50.392;7.482;2023-09-07T06:42:28;9.77;;;8.90;;
4980;SDS011;2507;50.392;7.482;2023-09-07T06:44:55;13.13;;;8.43;;
4980;SDS011;2507;50.392;7.482;2023-09-07T06:47:21;10.37;;;9.30;;
4980;SDS011;2507;50.392;7.482;2023-09-07T06:49:46;9.13;;;8.20;;
4980;SDS011;2507;50.392;7.482;2023-09-07T06:52:11;13.70;;;10.63;;
4980;SDS011;2507;50.392;7.482;2023-09-07T06:54:37;9.20;;;8.20;;
4980;SDS011;2507;50.392;7.482;2023-09-07T06:57:06;9.90;;;9.00;;
4980;SDS011;2507;50.392;7.482;2023-09-07T06:59:32;12.23;;;9.57;;
4980;SDS011;2507;50.392;7.482;2023-09-07T07:01:58;10.07;;;8.23;;
4980;SDS011;2507;50.392;7.482;2023-09-07T07:04:25;11.73;;;8.83;;
4980;SDS011;2507;50.392;7.482;2023-09-07T07:06:50;11.07;;;8.03;;
4980;SDS011;2507;50.392;7.482;2023-09-07T07:09:15;17.93;;;8.67;;
4980;SDS011;2507;50.392;7.482;2023-09-07T07:11:40;11.40;;;8.00;;
4980;SDS011;2507;50.392;7.482;2023-09-07T07:14:07;17.37;;;7.87;;
4980;SDS011;2507;50.392;7.482;2023-09-07T07:16:33;10.57;;;6.93;;
4980;SDS011;2507;50.392;7.482;2023-09-07T07:18:59;14.67;;;7.83;;
4980;SDS011;2507;50.392;7.482;2023-09-07T07:21:24;12.03;;;7.40;;
4980;SDS011;2507;50.392;7.482;2023-09-07T07:23:49;14.53;;;7.27;;
4980;SDS011;2507;50.392;7.482;2023-09-07T07:26:15;8.20;;;6.47;;
4980;SDS011;2507;50.392;7.482;2023-09-07T07:28:40;10.33;;;7.40;;
4980;SDS011;2507;50.392;7.482;2023-09-07T07:31:09;15.00;;;8.10;;
4980;SDS011;2507;50.392;7.482;2023-09-07T07:33:35;7.07;;;6.40;;
4980;SDS011;2507;50.392;7.482;2023-09-07T07:36:00;12.33;;;7.00;;
4980;SDS011;2507;50.392;7.482;2023-09-07T07:38:26;15.47;;;6.37;;
4980;SDS011;2507;50.392;7.482;2023-09-07T07:40:51;9.23;;;6.20;;
4980;SDS011;2507;50.392;7.482;2023-09-07T07:43:18;7.60;;;6.33;;
4980;SDS011;2507;50.392;7.482;2023-09-07T07:45:43;8.10;;;6.80;;
4980;SDS011;2507;50.392;7.482;2023-09-07T07:48:09;9.80;;;6.90;;
4980;SDS011;2507;50.392;7.482;2023-09-07T07:50:40;12.43;;;6.17;;
4980;SDS011;2507;50.392;7.482;2023-09-07T07:53:06;10.40;;;6.10;;
4980;SDS011;2507;50.392;7.482;2023-09-07T07:55:39;9.40;;;6.33;;
4980;SDS011;2507;50.392;7.482;2023-09-07T07:58:05;10.40;;;6.13;;
4980;SDS011;2507;50.392;7.482;2023-09-07T08:00:33;11.70;;;6.57;;
4980;SDS011;2507;50.392;7.482;2023-09-07T08:02:59;7.37;;;5.67;;
4980;SDS011;2507;50.392;7.482;2023-09-07T08:05:25;10.93;;;7.23;;
4980;SDS011;2507;50.392;7.482;2023-09-07T08:07:50;6.27;;;5.67;;
4980;SDS011;2507;50.392;7.482;2023-09-07T08:10:18;8.40;;;6.33;;
4980;SDS011;2507;50.392;7.482;2023-09-07T08:12:43;20.37;;;7.00;;
4980;SDS011;2507;50.392;7.482;2023-09-07T08:15:09;12.60;;;7.40;;
4980;SDS011;2507;50.392;7.482;2023-09-07T08:17:35;9.00;;;6.70;;
4980;SDS011;2507;50.392;7.482;2023-09-07T08:20:00;6.50;;;4.93;;
4980;SDS011;2507;50.392;7.482;2023-09-07T08:22:26;5.50;;;4.67;;
4980;SDS011;2507;50.392;7.482;2023-09-07T08:24:52;6.27;;;5.10;;
4980;SDS011;2507;50.392;7.482;2023-09-07T08:27:19;7.37;;;5.03;;
4980;SDS011;2507;50.392;7.482;2023-09-07T08:29:44;6.57;;;5.30;;
4980;SDS011;2507;50.392;7.482;2023-09-07T08:32:16;5.33;;;4.83;;
4980;SDS011;2507;50.392;7.482;2023-09-07T08:34:42;5.17;;;4.43;;
4980;SDS011;2507;50.392;7.482;2023-09-07T08:37:07;4.80;;;4.50;;
4980;SDS011;2507;50.392;7.482;2023-09-07T08:39:36;4.90;;;4.50;;
4980;SDS011;2507;50.392;7.482;2023-09-07T08:42:04;6.50;;;4.70;;
4980;SDS011;2507;50.392;7.482;2023-09-07T08:44:30;4.90;;;4.40;;
4980;SDS011;2507;50.392;7.482;2023-09-07T08:46:58;5.93;;;5.00;;
4980;SDS011;2507;50.392;7.482;2023-09-07T08:49:25;5.17;;;4.73;;
4980;SDS011;2507;50.392;7.482;2023-09-07T08:51:51;5.50;;;4.90;;
4980;SDS011;2507;50.392;7.482;2023-09-07T08:54:18;5.33;;;4.83;;
4980;SDS011;2507;50.392;7.482;2023-09-07T08:56:44;5.30;;;4.80;;
4980;SDS011;2507;50.392;7.482;2023-09-07T08:59:10;6.10;;;4.93;;
4980;SDS011;2507;50.392;7.482;2023-09-07T09:01:35;10.03;;;5.63;;
4980;SDS011;2507;50.392;7.482;2023-09-07T09:04:02;7.67;;;5.87;;
4980;SDS011;2507;50.392;7.482;2023-09-07T09:06:27;23.73;;;6.33;;
4980;SDS011;2507;50.392;7.482;2023-09-07T09:08:54;6.23;;;5.33;;
4980;SDS011;2507;50.392;7.482;2023-09-07T09:11:21;7.97;;;5.30;;
4980;SDS011;2507;50.392;7.482;2023-09-07T09:13:48;9.03;;;5.73;;
4980;SDS011;2507;50.392;7.482;2023-09-07T09:16:14;12.67;;;5.90;;
4980;SDS011;2507;50.392;7.482;2023-09-07T09:21:22;7.23;;;5.30;;
4980;SDS011;2507;50.392;7.482;2023-09-07T09:23:49;7.87;;;5.27;;
4980;SDS011;2507;50.392;7.482;2023-09-07T09:26:17;5.60;;;5.20;;
4980;SDS011;2507;50.392;7.482;2023-09-07T09:28:43;5.00;;;4.70;;
4980;SDS011;2507;50.392;7.482;2023-09-07T09:31:11;8.20;;;5.50;;
4980;SDS011;2507;50.392;7.482;2023-09-07T09:33:37;7.40;;;4.60;;
4980;SDS011;2507;50.392;7.482;2023-09-07T09:36:04;5.70;;;5.00;;
4980;SDS011;2507;50.392;7.482;2023-09-07T09:38:31;4.93;;;4.63;;
4980;SDS011;2507;50.392;7.482;2023-09-07T09:40:57;6.30;;;5.50;;
4980;SDS011;2507;50.392;7.482;2023-09-07T09:43:23;5.10;;;4.80;;
4980;SDS011;2507;50.392;7.482;2023-09-07T09:45:50;8.47;;;5.10;;
4980;SDS011;2507;50.392;7.482;2023-09-07T09:48:17;8.87;;;5.20;;
4980;SDS011;2507;50.392;7.482;2023-09-07T09:50:46;5.87;;;5.20;;
4980;SDS011;2507;50.392;7.482;2023-09-07T09:53:13;5.33;;;4.93;;
4980;SDS011;2507;50.392;7.482;2023-09-07T09:55:43;5.17;;;4.80;;
4980;SDS011;2507;50.392;7.482;2023-09-07T09:58:09;5.30;;;4.80;;
4980;SDS011;2507;50.392;7.482;2023-09-07T10:00:35;9.70;;;5.27;;
4980;SDS011;2507;50.392;7.482;2023-09-07T10:03:07;11.47;;;5.10;;
4980;SDS011;2507;50.392;7.482;2023-09-07T10:05:38;5.50;;;4.53;;
4980;SDS011;2507;50.392;7.482;2023-09-07T10:08:08;5.83;;;4.90;;
4980;SDS011;2507;50.392;7.482;2023-09-07T10:10:36;5.30;;;4.90;;
4980;SDS011;2507;50.392;7.482;2023-09-07T10:13:02;9.73;;;4.50;;
4980;SDS011;2507;50.392;7.482;2023-09-07T10:15:28;5.07;;;4.67;;
4980;SDS011;2507;50.392;7.482;2023-09-07T10:20:52;9.27;;;5.40;;
4980;SDS011;2507;50.392;7.482;2023-09-07T10:23:18;4.73;;;4.33;;
4980;SDS011;2507;50.392;7.482;2023-09-07T10:25:47;9.87;;;5.33;;
4980;SDS011;2507;50.392;7.482;2023-09-07T10:28:24;7.60;;;4.77;;
4980;SDS011;2507;50.392;7.482;2023-09-07T10:30:57;10.43;;;4.87;;
4980;SDS011;2507;50.392;7.482;2023-09-07T10:33:23;7.63;;;5.30;;
4980;SDS011;2507;50.392;7.482;2023-09-07T10:35:48;4.23;;;3.70;;
4980;SDS011;2507;50.392;7.482;2023-09-07T10:38:14;6.43;;;5.10;;
4980;SDS011;2507;50.392;7.482;2023-09-07T10:40:39;6.03;;;5.03;;
4980;SDS011;2507;50.392;7.482;2023-09-07T10:43:10;5.73;;;5.20;;
4980;SDS011;2507;50.392;7.482;2023-09-07T10:45:35;5.10;;;4.57;;
4980;SDS011;2507;50.392;7.482;2023-09-07T10:48:00;5.30;;;4.90;;
4980;SDS011;2507;50.392;7.482;2023-09-07T10:50:28;7.70;;;5.37;;
4980;SDS011;2507;50.392;7.482;2023-09-07T10:52:54;5.10;;;4.70;;
4980;SDS011;2507;50.392;7.482;2023-09-07T10:55:19;5.50;;;4.87;;
4980;SDS011;2507;50.392;7.482;2023-09-07T10:57:45;5.37;;;4.97;;
4980;SDS011;2507;50.392;7.482;2023-09-07T11:00:12;6.03;;;4.60;;
4980;SDS011;2507;50.392;7.482;2023-09-07T11:02:38;8.40;;;4.40;;
4980;SDS011;2507;50.392;7.482;2023-09-07T11:05:05;5.43;;;5.00;;
4980;SDS011;2507;50.392;7.482;2023-09-07T11:07:31;5.70;;;5.03;;
4980;SDS011;2507;50.392;7.482;2023-09-07T11:09:56;4.53;;;4.23;;
4980;SDS011;2507;50.392;7.482;2023-09-07T11:12:21;5.90;;;4.93;;
4980;SDS011;2507;50.392;7.482;2023-09-07T11:14:47;5.07;;;4.60;;
4980;SDS011;2507;50.392;7.482;2023-09-07T11:17:13;4.93;;;4.40;;
4980;SDS011;2507;50.392;7.482;2023-09-07T11:19:38;4.60;;;4.20;;
4980;SDS011;2507;50.392;7.482;2023-09-07T11:22:04;12.63;;;4.30;;
4980;SDS011;2507;50.392;7.482;2023-09-07T11:24:30;4.53;;;4.30;;
4980;SDS011;2507;50.392;7.482;2023-09-07T11:26:57;4.70;;;4.30;;
4980;SDS011;2507;50.392;7.482;2023-09-07T11:29:23;5.87;;;4.30;;
4980;SDS011;2507;50.392;7.482;2023-09-07T11:31:48;4.80;;;4.50;;
4980;SDS011;2507;50.392;7.482;2023-09-07T11:34:14;4.40;;;4.10;;
4980;SDS011;2507;50.392;7.482;2023-09-07T11:36:40;4.43;;;4.03;;
4980;SDS011;2507;50.392;7.482;2023-09-07T11:39:07;3.80;;;3.60;;
4980;SDS011;2507;50.392;7.482;2023-09-07T11:41:46;4.43;;;4.13;;
4980;SDS011;2507;50.392;7.482;2023-09-07T11:44:11;4.80;;;3.90;;
4980;SDS011;2507;50.392;7.482;2023-09-07T11:46:36;12.23;;;4.30;;
4980;SDS011;2507;50.392;7.482;2023-09-07T11:49:02;4.10;;;3.80;;
4980;SDS011;2507;50.392;7.482;2023-09-07T11:51:29;4.30;;;3.93;;
4980;SDS011;2507;50.392;7.482;2023-09-07T11:53:55;3.90;;;3.70;;
4980;SDS011;2507;50.392;7.482;2023-09-07T11:56:20;4.07;;;3.87;;
4980;SDS011;2507;50.392;7.482;2023-09-07T11:58:45;4.23;;;3.93;;
4980;SDS011;2507;50.392;7.482;2023-09-07T12:01:10;4.40;;;3.90;;
4980;SDS011;2507;50.392;7.482;2023-09-07T12:03:36;5.60;;;3.83;;
4980;SDS011;2507;50.392;7.482;2023-09-07T12:06:01;4.17;;;3.97;;
4980;SDS011;2507;50.392;7.482;2023-09-07T12:08:27;7.10;;;4.60;;
4980;SDS011;2507;50.392;7.482;2023-09-07T12:10:53;4.50;;;4.10;;
4980;SDS011;2507;50.392;7.482;2023-09-07T12:13:18;4.30;;;4.00;;
4980;SDS011;2507;50.392;7.482;2023-09-07T12:15:43;4.43;;;4.17;;
4980;SDS011;2507;50.392;7.482;2023-09-07T12:18:09;4.03;;;3.70;;
4980;SDS011;2507;50.392;7.482;2023-09-07T12:20:34;4.20;;;3.90;;
4980;SDS011;2507;50.392;7.482;2023-09-07T12:23:00;4.67;;;4.27;;
4980;SDS011;2507;50.392;7.482;2023-09-07T12:25:27;5.20;;;4.00;;
4980;SDS011;2507;50.392;7.482;2023-09-07T12:27:52;4.17;;;3.87;;
4980;SDS011;2507;50.392;7.482;2023-09-07T12:30:18;8.23;;;4.03;;
4980;SDS011;2507;50.392;7.482;2023-09-07T12:32:45;4.20;;;3.90;;
4980;SDS011;2507;50.392;7.482;2023-09-07T12:35:11;4.40;;;4.10;;
4980;SDS011;2507;50.392;7.482;2023-09-07T12:37:36;4.23;;;3.97;;
4980;SDS011;2507;50.392;7.482;2023-09-07T12:40:04;4.53;;;4.13;;
4980;SDS011;2507;50.392;7.482;2023-09-07T12:42:36;7.50;;;4.13;;
4980;SDS011;2507;50.392;7.482;2023-09-07T12:45:02;4.50;;;4.10;;
4980;SDS011;2507;50.392;7.482;2023-09-07T12:47:29;4.30;;;4.10;;
4980;SDS011;2507;50.392;7.482;2023-09-07T12:49:54;3.80;;;3.50;;
4980;SDS011;2507;50.392;7.482;2023-09-07T12:52:20;6.67;;;3.73;;
4980;SDS011;2507;50.392;7.482;2023-09-07T12:54:45;4.07;;;3.70;;
4980;SDS011;2507;50.392;7.482;2023-09-07T12:57:10;4.30;;;4.10;;
4980;SDS011;2507;50.392;7.482;2023-09-07T12:59:36;4.73;;;4.17;;
4980;SDS011;2507;50.392;7.482;2023-09-07T13:02:01;4.10;;;3.90;;
4980;SDS011;2507;50.392;7.482;2023-09-07T13:04:27;6.10;;;4.30;;
4980;SDS011;2507;50.392;7.482;2023-09-07T13:06:52;4.87;;;4.53;;
4980;SDS011;2507;50.392;7.482;2023-09-07T13:09:18;4.40;;;4.00;;
4980;SDS011;2507;50.392;7.482;2023-09-07T13:11:43;4.90;;;4.60;;
4980;SDS011;2507;50.392;7.482;2023-09-07T13:14:08;5.13;;;4.07;;
4980;SDS011;2507;50.392;7.482;2023-09-07T13:16:34;6.43;;;4.00;;
4980;SDS011;2507;50.392;7.482;2023-09-07T13:18:59;9.60;;;4.20;;
4980;SDS011;2507;50.392;7.482;2023-09-07T13:21:24;4.50;;;4.00;;
4980;SDS011;2507;50.392;7.482;2023-09-07T13:23:50;4.20;;;3.50;;
4980;SDS011;2507;50.392;7.482;2023-09-07T13:26:15;7.37;;;4.10;;
4980;SDS011;2507;50.392;7.482;2023-09-07T13:28:40;4.90;;;4.20;;
4980;SDS011;2507;50.392;7.482;2023-09-07T13:31:06;3.50;;;3.30;;
4980;SDS011;2507;50.392;7.482;2023-09-07T13:33:31;3.90;;;3.60;;
4980;SDS011;2507;50.392;7.482;2023-09-07T13:35:56;5.37;;;4.17;;
4980;SDS011;2507;50.392;7.482;2023-09-07T13:38:22;4.50;;;4.07;;
4980;SDS011;2507;50.392;7.482;2023-09-07T13:40:47;4.27;;;3.80;;
4980;SDS011;2507;50.392;7.482;2023-09-07T13:43:12;3.90;;;3.50;;
4980;SDS011;2507;50.392;7.482;2023-09-07T13:45:37;4.53;;;4.23;;
4980;SDS011;2507;50.392;7.482;2023-09-07T13:48:03;4.70;;;3.60;;
4980;SDS011;2507;50.392;7.482;2023-09-07T13:50:29;4.63;;;4.10;;
4980;SDS011;2507;50.392;7.482;2023-09-07T13:52:54;4.43;;;3.93;;
4980;SDS011;2507;50.392;7.482;2023-09-07T13:55:20;4.10;;;3.90;;
4980;SDS011;2507;50.392;7.482;2023-09-07T13:57:45;4.47;;;3.97;;
4980;SDS011;2507;50.392;7.482;2023-09-07T14:00:12;4.33;;;4.03;;
4980;SDS011;2507;50.392;7.482;2023-09-07T14:02:38;5.30;;;3.63;;
4980;SDS011;2507;50.392;7.482;2023-09-07T14:05:03;4.57;;;3.80;;
4980;SDS011;2507;50.392;7.482;2023-09-07T14:07:29;3.93;;;3.60;;
4980;SDS011;2507;50.392;7.482;2023-09-07T14:09:55;4.20;;;4.00;;
4980;SDS011;2507;50.392;7.482;2023-09-07T14:12:20;3.70;;;3.50;;
4980;SDS011;2507;50.392;7.482;2023-09-07T14:14:46;4.30;;;4.00;;
4980;SDS011;2507;50.392;7.482;2023-09-07T14:17:12;4.00;;;3.57;;
4980;SDS011;2507;50.392;7.482;2023-09-07T14:19:37;4.47;;;3.93;;
4980;SDS011;2507;50.392;7.482;2023-09-07T14:22:03;4.23;;;3.90;;
4980;SDS011;2507;50.392;7.482;2023-09-07T14:24:28;5.63;;;4.07;;
4980;SDS011;2507;50.392;7.482;2023-09-07T14:26:53;3.83;;;3.53;;
4980;SDS011;2507;50.392;7.482;2023-09-07T14:29:19;3.73;;;3.53;;
4980;SDS011;2507;50.392;7.482;2023-09-07T14:31:44;3.73;;;3.50;;
4980;SDS011;2507;50.392;7.482;2023-09-07T14:34:10;3.83;;;3.63;;
4980;SDS011;2507;50.392;7.482;2023-09-07T14:36:36;4.33;;;4.00;;
4980;SDS011;2507;50.392;7.482;2023-09-07T14:39:02;4.33;;;3.90;;
4980;SDS011;2507;50.392;7.482;2023-09-07T14:41:28;5.13;;;4.10;;
4980;SDS011;2507;50.392;7.482;2023-09-07T14:43:55;4.80;;;3.80;;
4980;SDS011;2507;50.392;7.482;2023-09-07T14:46:21;5.87;;;3.73;;
4980;SDS011;2507;50.392;7.482;2023-09-07T14:48:48;3.90;;;3.60;;
4980;SDS011;2507;50.392;7.482;2023-09-07T14:51:14;7.40;;;3.97;;
4980;SDS011;2507;50.392;7.482;2023-09-07T14:53:39;4.00;;;3.80;;
4980;SDS011;2507;50.392;7.482;2023-09-07T14:56:04;5.70;;;3.67;;
4980;SDS011;2507;50.392;7.482;2023-09-07T14:58:30;7.63;;;3.87;;
4980;SDS011;2507;50.392;7.482;2023-09-07T15:00:55;4.83;;;3.53;;
4980;SDS011;2507;50.392;7.482;2023-09-07T15:03:20;4.30;;;3.33;;
4980;SDS011;2507;50.392;7.482;2023-09-07T15:05:46;3.70;;;3.50;;
4980;SDS011;2507;50.392;7.482;2023-09-07T15:08:11;3.90;;;3.70;;